Time;durP1;ratioP1;P1;durP2;ratioP2;P2;SDS_P1;SDS_P2;PMS_P1;PMS_P2;Temp;Humidity;BMP_temperature;BMP_pressure;BME280_temperature;BME280_humidity;BME280_pressure;Samples;Min_cycle;Max_cycle;Signal;HPM_P1;HPM_P2
2021/05/10 00:01:28;;;;;;;1999.90;999.90;;;21.90;1.60;;;;;;5058756;28;20188;-79
2021/05/10 00:03:54;;;;;;;1999.90;999.90;;;21.80;2.00;;;;;;5058890;28;20411;-79
2021/05/10 00:06:20;;;;;;;1999.90;999.90;;;21.80;2.40;;;;;;5058066;28;20186;-79
2021/05/10 00:08:47;;;;;;;1999.90;999.90;;;21.80;2.80;;;;;;5058851;28;20215;-79
2021/05/10 00:11:13;;;;;;;1999.90;999.90;;;21.70;2.80;;;;;;5058643;28;20636;-79
2021/05/10 00:13:43;;;;;;;1999.90;999.90;;;21.60;3.20;;;;;;5058606;28;20887;-79
2021/05/10 00:16:09;;;;;;;1999.90;999.90;;;21.50;3.50;;;;;;5040732;28;20818;-79
2021/05/10 00:18:35;;;;;;;1999.90;999.90;;;21.50;3.50;;;;;;5058823;28;20423;-79
2021/05/10 00:21:00;;;;;;;1999.90;999.90;;;21.60;3.20;;;;;;5059601;28;20403;-79
2021/05/10 00:23:26;;;;;;;1999.90;999.90;;;21.60;3.60;;;;;;5059377;28;20403;-79
2021/05/10 00:25:52;;;;;;;1999.90;999.90;;;21.50;3.60;;;;;;5059243;28;20176;-79
2021/05/10 00:28:17;;;;;;;1999.90;999.90;;;21.50;3.90;;;;;;5059566;28;20185;-79
2021/05/10 00:30:43;;;;;;;1999.90;999.90;;;21.50;3.10;;;;;;5058942;28;20582;-79
2021/05/10 00:33:09;;;;;;;1999.90;999.90;;;21.50;3.10;;;;;;5041633;28;20165;-79
2021/05/10 00:35:35;;;;;;;1999.90;999.90;;;21.50;3.10;;;;;;5059227;28;20193;-79
2021/05/10 00:38:01;;;;;;;1999.90;999.90;;;21.50;3.10;;;;;;5059085;28;20192;-79
2021/05/10 00:40:29;;;;;;;1999.90;999.90;;;21.50;3.10;;;;;;5058836;28;20414;-79
2021/05/10 00:42:55;;;;;;;1999.90;999.90;;;21.50;3.50;;;;;;5058316;28;20410;-79
2021/05/10 00:45:25;;;;;;;1999.90;999.90;;;21.50;2.90;;;;;;5058716;28;20821;-78
2021/05/10 00:47:51;;;;;;;1999.90;999.90;;;21.50;3.20;;;;;;5058438;28;20510;-78
2021/05/10 00:50:17;;;;;;;1999.90;999.90;;;21.60;2.70;;;;;;5040925;28;20414;-78
2021/05/10 00:52:43;;;;;;;1999.90;999.90;;;21.60;2.80;;;;;;5058637;28;20414;-78
2021/05/10 00:55:11;;;;;;;1999.90;999.90;;;21.60;2.90;;;;;;5058358;28;20471;-78
2021/05/10 00:58:01;;;;;;;1999.90;999.90;;;21.60;3.30;;;;;;5058867;28;20485;-78
2021/05/10 01:00:34;;;;;;;1999.90;999.90;;;21.60;3.20;;;;;;5058340;28;20388;-78
2021/05/10 01:03:00;;;;;;;1999.90;999.90;;;21.60;4.60;;;;;;5059120;28;20390;-78
2021/05/10 01:05:26;;;;;;;1999.90;999.90;;;21.50;5.40;;;;;;5058652;28;20407;-78
2021/05/10 01:07:52;;;;;;;1999.90;999.90;;;21.50;5.40;;;;;;5057809;28;20461;-78
2021/05/10 01:10:20;;;;;;;1999.90;999.90;;;21.40;6.10;;;;;;5058498;28;20922;-78
2021/05/10 01:12:47;;;;;;;1999.90;999.90;;;21.30;5.70;;;;;;5041189;28;20418;-78
2021/05/10 01:15:16;;;;;;;1999.90;999.90;;;21.20;6.20;;;;;;5040630;28;20476;-77
2021/05/10 01:17:41;;;;;;;1999.90;999.90;;;21.20;6.40;;;;;;5040156;28;20526;-78
2021/05/10 01:20:10;;;;;;;1999.90;999.90;;;21.20;6.60;;;;;;5058465;28;20431;-78
2021/05/10 01:22:44;;;;;;;1999.90;999.90;;;21.10;6.80;;;;;;5058605;28;20496;-79
2021/05/10 01:25:13;;;;;;;1999.90;999.90;;;21.10;7.40;;;;;;5058527;28;20481;-79
2021/05/10 01:27:40;;;;;;;1999.90;999.90;;;21.00;7.20;;;;;;5057702;28;20825;-78
2021/05/10 01:30:08;;;;;;;1999.90;999.90;;;21.00;7.40;;;;;;5040335;28;20433;-78
2021/05/10 01:32:34;;;;;;;1999.90;999.90;;;21.10;7.20;;;;;;5058035;28;20422;-78
2021/05/10 01:35:00;;;;;;;1999.90;999.90;;;21.10;6.90;;;;;;5058071;28;20513;-79
2021/05/10 01:37:26;;;;;;;1999.90;999.90;;;21.20;6.40;;;;;;5057589;28;20671;-79
2021/05/10 01:39:51;;;;;;;1999.90;999.90;;;21.30;3.80;;;;;;5057851;28;20414;-79
2021/05/10 01:42:17;;;;;;;1999.90;999.90;;;21.50;3.30;;;;;;5057469;28;20176;-79
2021/05/10 01:44:43;;;;;;;1999.90;999.90;;;21.60;3.00;;;;;;5056840;28;20240;-78
2021/05/10 01:47:09;;;;;;;1999.90;999.90;;;21.60;2.20;;;;;;5056838;28;20268;-78
2021/05/10 01:49:34;;;;;;;1999.90;999.90;;;21.60;2.70;;;;;;5056801;28;20922;-78
2021/05/10 01:52:01;;;;;;;1999.90;999.90;;;21.70;2.80;;;;;;5057328;28;20222;-78
2021/05/10 01:54:30;;;;;;;1999.90;999.90;;;21.60;2.40;;;;;;5038773;28;20169;-78
2021/05/10 01:56:56;;;;;;;1999.90;999.90;;;21.70;2.50;;;;;;5057398;28;20806;-79
2021/05/10 01:59:21;;;;;;;1999.90;999.90;;;21.60;3.00;;;;;;5056568;28;20429;-79
2021/05/10 02:01:47;;;;;;;1999.90;999.90;;;21.60;2.40;;;;;;5039541;28;20169;-79
2021/05/10 02:04:13;;;;;;;1999.90;999.90;;;21.60;3.00;;;;;;5057700;28;20581;-79
2021/05/10 02:06:38;;;;;;;1999.90;999.90;;;21.60;2.80;;;;;;5057297;28;20465;-78
2021/05/10 02:09:04;;;;;;;1999.90;999.90;;;21.70;3.70;;;;;;5057289;28;20196;-78
2021/05/10 02:11:30;;;;;;;1999.90;999.90;;;21.70;3.30;;;;;;5040088;28;20187;-78
2021/05/10 02:13:55;;;;;;;1999.90;999.90;;;21.70;3.60;;;;;;5057298;28;20532;-79
2021/05/10 02:16:22;;;;;;;1999.90;999.90;;;21.70;3.70;;;;;;5039409;28;20258;-79
2021/05/10 02:18:48;;;;;;;1999.90;999.90;;;21.60;4.10;;;;;;5039091;28;20223;-79
2021/05/10 02:21:14;;;;;;;1999.90;999.90;;;21.60;4.40;;;;;;5056987;28;20399;-79
2021/05/10 02:23:39;;;;;;;1999.90;999.90;;;21.50;4.90;;;;;;5056946;28;20169;-79
2021/05/10 02:26:07;;;;;;;1999.90;999.90;;;21.50;5.40;;;;;;5039711;28;20524;-79
2021/05/10 02:28:33;;;;;;;1999.90;999.90;;;21.50;5.60;;;;;;5058731;28;20188;-79
2021/05/10 02:31:01;;;;;;;1999.90;999.90;;;21.40;6.10;;;;;;5060950;28;20395;-79
2021/05/10 02:33:33;;;;;;;1999.90;999.90;;;21.30;5.70;;;;;;5043239;28;20407;-79
2021/05/10 02:36:02;;;;;;;1999.90;999.90;;;21.30;6.20;;;;;;5061262;28;20493;-79
2021/05/10 02:38:28;;;;;;;1999.90;999.90;;;21.20;6.00;;;;;;5061349;28;21007;-79
2021/05/10 02:40:54;;;;;;;1999.90;999.90;;;21.30;6.60;;;;;;5061840;28;20398;-79
2021/05/10 02:43:23;;;;;;;1999.90;999.90;;;21.20;7.00;;;;;;5060850;28;20214;-79
2021/05/10 02:45:51;;;;;;;1999.90;999.90;;;21.10;8.00;;;;;;5061601;28;20430;-80
2021/05/10 02:48:17;;;;;;;1999.90;999.90;;;21.00;8.50;;;;;;5060492;28;20430;-79
2021/05/10 02:50:43;;;;;;;1999.90;999.90;;;20.90;10.00;;;;;;5061064;28;20402;-79
2021/05/10 02:53:09;;;;;;;1999.90;999.90;;;20.90;11.00;;;;;;5060277;28;20909;-79
2021/05/10 02:55:35;;;;;;;1999.90;999.90;;;20.90;11.90;;;;;;5060330;28;20287;-79
2021/05/10 02:58:00;;;;;;;1999.90;999.90;;;20.80;15.10;;;;;;5060766;28;20510;-79
2021/05/10 03:00:27;;;;;;;1999.90;999.90;;;20.80;15.40;;;;;;5060536;28;20202;-79
2021/05/10 03:02:55;;;;;;;1999.90;999.90;;;20.80;17.60;;;;;;5060538;28;20165;-79
2021/05/10 03:05:22;;;;;;;1999.90;999.90;;;20.70;22.70;;;;;;5060569;28;20417;-79
2021/05/10 03:07:48;;;;;;;1999.90;999.90;;;20.60;23.60;;;;;;5059655;28;20446;-79
2021/05/10 03:10:16;;;;;;;1999.90;999.90;;;20.60;27.20;;;;;;5060272;28;20403;-79
2021/05/10 03:12:43;;;;;;;1999.90;999.90;;;20.40;34.60;;;;;;5060395;28;20165;-79
2021/05/10 03:15:11;;;;;;;1999.90;999.90;;;20.40;37.70;;;;;;5060248;28;20445;-79
2021/05/10 03:17:37;;;;;;;1999.90;999.90;;;20.30;41.60;;;;;;5059637;28;20421;-79
2021/05/10 03:20:09;;;;;;;1999.90;999.90;;;20.10;46.70;;;;;;5060638;28;20402;-79
2021/05/10 03:22:36;;;;;;;1999.90;999.90;;;20.10;48.00;;;;;;5059630;28;20434;-78
2021/05/10 03:25:03;;;;;;;1999.90;999.90;;;20.00;47.60;;;;;;5041504;28;20813;-79
2021/05/10 03:27:38;;;;;;;1999.90;999.90;;;20.00;52.40;;;;;;5059910;28;20929;-78
2021/05/10 03:30:04;;;;;;;1999.90;999.90;;;20.00;46.30;;;;;;5060140;28;20391;-79
2021/05/10 03:32:30;;;;;;;1999.90;999.90;;;20.10;41.70;;;;;;5059844;28;20573;-78
2021/05/10 03:34:55;;;;;;;1999.90;999.90;;;20.10;38.20;;;;;;5041307;28;20858;-78
2021/05/10 03:37:21;;;;;;;1999.90;999.90;;;20.20;32.10;;;;;;5059022;28;20182;-78
2021/05/10 03:39:46;;;;;;;1999.90;999.90;;;20.20;31.40;;;;;;5059655;28;20168;-78
2021/05/10 03:42:12;;;;;;;1999.90;999.90;;;20.30;30.60;;;;;;5040768;28;20185;-79
2021/05/10 03:44:38;;;;;;;1999.90;999.90;;;20.40;29.70;;;;;;5058988;28;20168;-78
2021/05/10 03:47:03;;;;;;;1999.90;999.90;;;20.40;27.00;;;;;;5058860;28;20542;-78
2021/05/10 03:49:29;;;;;;;1999.90;999.90;;;20.40;27.50;;;;;;5058131;28;20174;-79
2021/05/10 03:51:54;;;;;;;1999.90;999.90;;;20.50;25.90;;;;;;5058254;28;20172;-78
2021/05/10 03:54:20;;;;;;;1999.90;999.90;;;20.50;31.90;;;;;;5058493;28;20196;-79
2021/05/10 03:56:46;;;;;;;1999.90;999.90;;;20.50;31.10;;;;;;5058494;28;20188;-78
2021/05/10 03:59:11;;;;;;;1999.90;999.90;;;20.50;28.80;;;;;;5058801;28;20188;-78
2021/05/10 04:01:37;;;;;;;1999.90;999.90;;;20.60;26.70;;;;;;5040080;28;20193;-78
2021/05/10 04:04:17;;;;;;;1999.90;999.90;;;20.60;26.80;;;;;;5058100;28;20497;-78
2021/05/10 04:14:36;;;;;;;1999.90;999.90;;;20.70;25.60;;;;;;5058668;28;20164;-78
2021/05/10 04:17:02;;;;;;;1999.90;999.90;;;20.70;57.90;;;;;;5058750;28;20453;-79
2021/05/10 04:19:28;;;;;;;1999.90;999.90;;;20.50;74.20;;;;;;5058376;28;20187;-78
2021/05/10 04:21:53;;;;;;;1999.90;999.90;;;20.20;89.00;;;;;;5058835;28;20165;-78
2021/05/10 04:24:19;;;;;;;1999.90;999.90;;;20.00;89.00;;;;;;5058724;28;20241;-79
2021/05/10 04:26:44;;;;;;;1999.90;999.90;;;20.00;91.10;;;;;;5059244;28;20635;-79
2021/05/10 04:29:10;;;;;;;1999.90;999.90;;;20.00;93.00;;;;;;5059774;28;20176;-79
2021/05/10 04:31:36;;;;;;;1999.90;999.90;;;19.90;93.40;;;;;;5059419;28;20164;-79
2021/05/10 04:34:01;;;;;;;1999.90;999.90;;;19.80;91.40;;;;;;5059359;28;20168;-79
2021/05/10 04:36:27;;;;;;;1999.90;999.90;;;19.80;91.50;;;;;;5059493;28;20196;-79
2021/05/10 04:38:53;;;;;;;1999.90;999.90;;;19.90;90.20;;;;;;5059107;28;20196;-79
2021/05/10 04:41:18;;;;;;;1999.90;999.90;;;19.90;81.10;;;;;;5059357;28;20165;-79
2021/05/10 04:43:44;;;;;;;1999.90;999.90;;;20.00;78.90;;;;;;5059364;28;20172;-79
2021/05/10 04:46:11;;;;;;;1999.90;999.90;;;20.00;75.60;;;;;;5059044;28;20202;-79
2021/05/10 04:48:36;;;;;;;1999.90;999.90;;;20.00;72.60;;;;;;5058805;28;20691;-79
2021/05/10 04:51:02;;;;;;;1999.90;999.90;;;20.00;74.10;;;;;;5058573;28;20407;-79
2021/05/10 04:53:28;;;;;;;1999.90;999.90;;;20.00;75.20;;;;;;5059095;28;20195;-79
2021/05/10 04:55:53;;;;;;;1999.90;999.90;;;20.10;71.00;;;;;;5059163;28;20203;-80
2021/05/10 04:58:19;;;;;;;1999.90;999.90;;;20.10;65.50;;;;;;5058732;28;20185;-79
2021/05/10 05:00:45;;;;;;;1999.90;999.90;;;20.10;65.70;;;;;;5058326;28;20168;-80
2021/05/10 05:03:10;;;;;;;1999.90;999.90;;;20.20;66.50;;;;;;5059550;28;20196;-79
2021/05/10 05:05:36;;;;;;;1999.90;999.90;;;20.10;67.80;;;;;;5058601;28;20167;-79
2021/05/10 05:08:02;;;;;;;1999.90;999.90;;;20.10;68.20;;;;;;5161482;22;20220;-80
2021/05/10 05:10:27;;;;;;;1999.90;999.90;;;20.10;69.00;;;;;;5077200;28;20171;-79
2021/05/10 05:12:53;;;;;;;1999.90;999.90;;;20.10;70.20;;;;;;5078550;28;20164;-79
2021/05/10 05:15:19;;;;;;;1999.90;999.90;;;20.20;69.40;;;;;;5078500;28;20185;-79
2021/05/10 05:17:48;;;;;;;1999.90;999.90;;;20.10;68.00;;;;;;5077994;28;20208;-79
2021/05/10 05:20:15;;;;;;;1999.90;999.90;;;20.10;70.20;;;;;;5079215;28;20470;-79
2021/05/10 05:22:40;;;;;;;1999.90;999.90;;;20.10;68.50;;;;;;5079139;28;20474;-79
2021/05/10 05:25:08;;;;;;;1999.90;999.90;;;20.10;70.60;;;;;;5078705;28;20399;-78
2021/05/10 05:27:35;;;;;;;1999.90;999.90;;;20.10;69.90;;;;;;5077102;28;20223;-79
2021/05/10 05:30:01;;;;;;;1999.90;999.90;;;20.10;69.30;;;;;;5078237;28;20413;-79
2021/05/10 05:32:28;;;;;;;1999.90;999.90;;;20.10;69.20;;;;;;5077519;28;20754;-79
2021/05/10 05:34:53;;;;;;;1999.90;999.90;;;20.10;70.60;;;;;;5076694;28;20823;-79
2021/05/10 05:37:19;;;;;;;1999.90;999.90;;;20.10;70.50;;;;;;5077838;28;20445;-79
2021/05/10 05:39:45;;;;;;;1999.90;999.90;;;20.20;74.50;;;;;;5078315;28;20156;-79
2021/05/10 05:42:11;;;;;;;1999.90;999.90;;;20.10;73.40;;;;;;5078435;28;20402;-79
2021/05/10 05:44:38;;;;;;;1999.90;999.90;;;20.10;72.00;;;;;;5078244;28;20167;-79
2021/05/10 05:47:05;;;;;;;1999.90;999.90;;;20.20;72.00;;;;;;5078501;28;20608;-79
2021/05/10 05:49:34;;;;;;;1999.90;999.90;;;20.10;74.00;;;;;;5076842;28;20440;-79
2021/05/10 05:52:02;;;;;;;1999.90;999.90;;;20.10;76.20;;;;;;5076813;28;20492;-79
2021/05/10 05:54:28;;;;;;;1999.90;999.90;;;20.10;78.30;;;;;;5077921;28;20908;-79
2021/05/10 05:56:53;;;;;;;1999.90;999.90;;;20.10;75.80;;;;;;5077791;28;20442;-79
2021/05/10 05:59:19;;;;;;;1999.90;999.90;;;20.00;76.90;;;;;;5078127;28;20160;-79
2021/05/10 06:01:47;;;;;;;1999.90;999.90;;;20.10;77.90;;;;;;5077496;28;20166;-79
2021/05/10 06:04:12;;;;;;;1999.90;999.90;;;20.20;78.10;;;;;;5075323;28;20160;-79
2021/05/10 06:06:38;;;;;;;1999.90;999.90;;;20.20;78.60;;;;;;5075978;28;20426;-79
2021/05/10 06:09:07;;;;;;;1999.90;999.90;;;20.20;78.40;;;;;;5077665;28;20219;-79
2021/05/10 06:11:33;;;;;;;1999.90;999.90;;;20.20;79.40;;;;;;5076882;28;20410;-79
2021/05/10 06:13:59;;;;;;;1999.90;999.90;;;20.40;79.00;;;;;;5078234;28;20762;-79
2021/05/10 06:16:30;;;;;;;1999.90;999.90;;;20.40;82.60;;;;;;5077397;28;20655;-79
2021/05/10 06:18:56;;;;;;;1999.90;999.90;;;20.30;82.70;;;;;;5078015;28;20429;-78
2021/05/10 06:21:22;;;;;;;1999.90;999.90;;;20.30;85.90;;;;;;5078190;28;20407;-79
2021/05/10 06:23:49;;;;;;;1999.90;999.90;;;20.30;88.50;;;;;;5078101;28;20405;-78
2021/05/10 06:26:15;;;;;;;1999.90;999.90;;;20.30;90.20;;;;;;5077928;28;20490;-79
2021/05/10 06:28:41;;;;;;;1999.90;999.90;;;20.30;90.80;;;;;;5078056;28;20454;-79
2021/05/10 06:31:08;;;;;;;1999.90;999.90;;;20.20;92.10;;;;;;5077980;28;21007;-79
2021/05/10 06:33:34;;;;;;;1999.90;999.90;;;20.20;91.80;;;;;;5077461;28;20881;-79
2021/05/10 06:35:59;;;;;;;1999.90;999.90;;;20.00;93.50;;;;;;5077163;28;20476;-79
2021/05/10 06:38:25;;;;;;;1999.90;999.90;;;20.00;93.70;;;;;;5077188;28;20423;-79
2021/05/10 06:40:51;;;;;;;1999.90;999.90;;;20.00;94.20;;;;;;5077222;28;20156;-79
2021/05/10 06:43:17;;;;;;;1999.90;999.90;;;20.00;95.80;;;;;;5077318;28;20172;-79
2021/05/10 06:45:43;;;;;;;1999.90;999.90;;;20.10;94.70;;;;;;5076735;28;20165;-79
2021/05/10 06:48:09;;;;;;;1999.90;999.90;;;20.00;96.60;;;;;;5077264;28;20430;-79
2021/05/10 06:50:35;;;;;;;1999.90;999.90;;;20.20;96.50;;;;;;5077108;28;20244;-79
2021/05/10 06:53:00;;;;;;;1999.90;999.90;;;20.40;97.20;;;;;;5075802;28;20168;-79
2021/05/10 06:55:26;;;;;;;1999.90;999.90;;;20.50;96.90;;;;;;5076121;28;20325;-79
2021/05/10 06:57:52;;;;;;;1999.90;999.90;;;20.60;95.80;;;;;;5077165;28;20658;-79
2021/05/10 07:00:17;;;;;;;1999.90;999.90;;;20.70;95.60;;;;;;5077335;28;20609;-79
2021/05/10 07:02:43;;;;;;;1999.90;999.90;;;20.70;94.50;;;;;;5077168;28;20256;-79
2021/05/10 07:05:09;;;;;;;1999.90;999.90;;;20.70;93.70;;;;;;5077274;28;20455;-79
2021/05/10 07:07:36;;;;;;;1999.90;999.90;;;20.70;94.30;;;;;;5077168;28;20215;-79
2021/05/10 07:10:03;;;;;;;1999.90;999.90;;;20.80;94.20;;;;;;5077149;28;20414;-78
2021/05/10 07:12:29;;;;;;;1999.90;999.90;;;20.90;94.20;;;;;;5078623;28;20935;-79
2021/05/10 07:14:55;;;;;;;1999.90;999.90;;;21.10;92.40;;;;;;5077805;28;20421;-79
2021/05/10 07:17:21;;;;;;;1999.90;999.90;;;21.30;91.10;;;;;;5081023;28;20190;-80
2021/05/10 07:19:46;;;;;;;1999.90;999.90;;;21.50;92.00;;;;;;5081428;28;20635;-80
2021/05/10 07:22:12;;;;;;;1999.90;999.90;;;21.50;87.70;;;;;;5082254;28;20198;-79
2021/05/10 07:24:38;;;;;;;1999.90;999.90;;;21.50;80.90;;;;;;5081521;28;20194;-79
2021/05/10 07:27:04;;;;;;;1999.90;999.90;;;21.60;81.00;;;;;;5080933;28;20160;-80
2021/05/10 07:29:29;;;;;;;1999.90;999.90;;;21.60;80.30;;;;;;5081467;28;20167;-80
2021/05/10 07:31:55;;;;;;;1999.90;999.90;;;21.40;74.70;;;;;;5081387;28;20194;-79
2021/05/10 07:34:22;;;;;;;1999.90;999.90;;;21.20;69.00;;;;;;5081192;28;20163;-79
2021/05/10 07:36:48;;;;;;;1999.90;999.90;;;21.20;70.70;;;;;;5081251;28;20474;-79
2021/05/10 07:39:13;;;;;;;1999.90;999.90;;;21.10;70.30;;;;;;5081176;28;20954;-79
2021/05/10 07:41:39;;;;;;;1999.90;999.90;;;21.00;70.30;;;;;;5080573;28;20173;-80
2021/05/10 07:44:05;;;;;;;1999.90;999.90;;;20.90;66.30;;;;;;5081308;28;20174;-79
2021/05/10 07:46:31;;;;;;;1999.90;999.90;;;20.90;67.80;;;;;;5081530;28;20224;-78
2021/05/10 07:48:57;;;;;;;1999.90;999.90;;;20.80;73.60;;;;;;5079272;28;20195;-79
2021/05/10 07:51:22;;;;;;;1999.90;999.90;;;20.60;70.70;;;;;;5079233;28;20431;-79
2021/05/10 07:53:49;;;;;;;1999.90;999.90;;;20.70;74.60;;;;;;5080749;28;20169;-79
2021/05/10 07:56:14;;;;;;;1999.90;999.90;;;20.60;80.40;;;;;;5080367;28;20190;-79
2021/05/10 07:58:44;;;;;;;1999.90;999.90;;;20.70;74.70;;;;;;5080602;28;20449;-79
2021/05/10 08:01:10;;;;;;;1999.90;999.90;;;20.70;71.00;;;;;;5079337;28;20169;-79
2021/05/10 08:03:36;;;;;;;1999.90;999.90;;;20.70;68.20;;;;;;5079595;28;20393;-79
2021/05/10 08:06:02;;;;;;;1999.90;999.90;;;20.80;69.30;;;;;;5079951;28;20414;-79
2021/05/10 08:08:28;;;;;;;1999.90;999.90;;;20.70;68.80;;;;;;5078558;28;20221;-79
2021/05/10 08:10:54;;;;;;;1999.90;999.90;;;20.70;71.00;;;;;;5079439;28;20411;-79
2021/05/10 08:13:20;;;;;;;1999.90;999.90;;;20.80;71.70;;;;;;5077710;28;20406;-80
2021/05/10 08:15:46;;;;;;;1999.90;999.90;;;20.80;71.30;;;;;;5080363;28;20449;-79
2021/05/10 08:18:13;;;;;;;1999.90;999.90;;;20.70;71.80;;;;;;5079037;28;20429;-79
2021/05/10 08:20:44;;;;;;;1999.90;999.90;;;20.80;72.90;;;;;;5078225;28;20414;-79
2021/05/10 08:23:10;;;;;;;1999.90;999.90;;;20.70;69.70;;;;;;5079255;28;20391;-79
2021/05/10 08:25:37;;;;;;;1999.90;999.90;;;20.50;71.80;;;;;;5077014;28;20447;-79
2021/05/10 08:28:04;;;;;;;1999.90;999.90;;;20.50;71.50;;;;;;5079062;28;20516;-79
2021/05/10 08:30:30;;;;;;;1999.90;999.90;;;20.50;70.00;;;;;;5079554;28;20411;-79
2021/05/10 08:32:57;;;;;;;1999.90;999.90;;;20.50;77.50;;;;;;5080381;28;20746;-79
2021/05/10 08:35:23;;;;;;;1999.90;999.90;;;20.50;77.70;;;;;;5078212;28;20561;-79
2021/05/10 08:37:49;;;;;;;1999.90;999.90;;;20.50;74.60;;;;;;5079426;28;20418;-79
2021/05/10 08:40:15;;;;;;;1999.90;999.90;;;20.50;75.50;;;;;;5078926;28;20411;-79
2021/05/10 08:42:43;;;;;;;1999.90;999.90;;;20.60;74.60;;;;;;5078440;28;20167;-79
2021/05/10 08:45:09;;;;;;;1999.90;999.90;;;20.60;77.80;;;;;;5078705;28;20691;-79
2021/05/10 08:47:36;;;;;;;1999.90;999.90;;;20.60;70.50;;;;;;5079047;28;20419;-80
2021/05/10 08:50:05;;;;;;;1999.90;999.90;;;20.50;74.30;;;;;;5077298;28;20415;-79
2021/05/10 08:52:34;;;;;;;1999.90;999.90;;;20.50;73.20;;;;;;5079372;28;20897;-79
2021/05/10 08:54:59;;;;;;;1999.90;999.90;;;20.50;74.00;;;;;;5079704;28;20489;-80
2021/05/10 08:57:25;;;;;;;1999.90;999.90;;;20.50;74.00;;;;;;5079157;28;20434;-79
2021/05/10 08:59:51;;;;;;;1999.90;999.90;;;20.40;79.40;;;;;;5079189;28;20161;-80
2021/05/10 09:02:29;;;;;;;1999.90;999.90;;;20.50;77.60;;;;;;5079159;28;20169;-79
2021/05/10 09:05:08;;;;;;;1999.90;999.90;;;20.40;78.00;;;;;;5077936;28;20247;-80
2021/05/10 09:07:34;;;;;;;1999.90;999.90;;;20.20;79.40;;;;;;5078860;28;20437;-80
2021/05/10 09:10:02;;;;;;;1999.90;999.90;;;20.30;77.20;;;;;;5079167;28;20391;-79
2021/05/10 09:12:48;;;;;;;1999.90;999.90;;;20.30;79.70;;;;;;5079420;28;20306;-79
2021/05/10 09:15:23;;;;;;;1999.90;999.90;;;20.30;85.10;;;;;;5078933;28;20446;-79
2021/05/10 09:17:53;;;;;;;1999.90;999.90;;;20.20;85.50;;;;;;5078030;28;20437;-79
2021/05/10 09:20:33;;;;;;;1999.90;999.90;;;20.30;86.50;;;;;;5079800;28;20465;-79
2021/05/10 09:23:08;;;;;;;1999.90;999.90;;;20.40;83.90;;;;;;5079164;28;20906;-79
2021/05/10 09:25:45;;;;;;;1999.90;999.90;;;20.30;85.40;;;;;;5078919;28;20389;-79
2021/05/10 09:28:11;;;;;;;1999.90;999.90;;;20.40;89.40;;;;;;5079035;28;20422;-79
2021/05/10 09:30:37;;;;;;;1999.90;999.90;;;20.50;87.90;;;;;;5077810;28;20410;-79
2021/05/10 09:33:03;;;;;;;1999.90;999.90;;;20.70;87.90;;;;;;5078909;28;20398;-79
2021/05/10 09:35:30;;;;;;;1999.90;999.90;;;20.90;83.80;;;;;;5078780;28;20441;-79
2021/05/10 09:38:05;;;;;;;1999.90;999.90;;;20.90;83.00;;;;;;5078782;28;20420;-79
2021/05/10 09:41:02;;;;;;;1999.90;999.90;;;21.00;76.80;;;;;;5078943;28;20435;-79
2021/05/10 09:43:29;;;;;;;1999.90;999.90;;;21.00;78.90;;;;;;5079247;28;20869;-79
2021/05/10 09:46:01;;;;;;;1999.90;999.90;;;21.00;79.40;;;;;;5078819;28;20546;-79
2021/05/10 09:48:30;;;;;;;1999.90;999.90;;;20.90;80.50;;;;;;5078334;28;20438;-79
2021/05/10 09:51:02;;;;;;;1999.90;999.90;;;21.00;79.20;;;;;;5078327;28;20493;-79
2021/05/10 09:53:53;;;;;;;1999.90;999.90;;;20.90;70.50;;;;;;5080749;28;20953;-79
2021/05/10 09:56:25;;;;;;;1999.90;999.90;;;21.00;77.40;;;;;;5078420;28;20865;-79
2021/05/10 09:58:52;;;;;;;1999.90;999.90;;;21.00;77.30;;;;;;5077700;28;20436;-78
2021/05/10 10:01:19;;;;;;;1999.90;999.90;;;20.90;79.90;;;;;;5077383;28;20402;-79
2021/05/10 10:03:49;;;;;;;1999.90;999.90;;;20.50;78.90;;;;;;5078633;28;20404;-79
2021/05/10 10:06:19;;;;;;;1999.90;999.90;;;20.40;88.60;;;;;;5078989;28;20750;-79
2021/05/10 10:08:49;;;;;;;1999.90;999.90;;;20.50;91.00;;;;;;5077208;28;20833;-79
2021/05/10 10:11:20;;;;;;;1999.90;999.90;;;20.60;91.10;;;;;;5080375;28;20383;-78
2021/05/10 10:13:47;;;;;;;1999.90;999.90;;;20.80;90.70;;;;;;5059578;28;20459;-78
2021/05/10 10:16:14;;;;;;;1999.90;999.90;;;21.10;90.30;;;;;;5076154;28;21040;-78
2021/05/10 10:18:41;;;;;;;1999.90;999.90;;;21.50;86.70;;;;;;5077171;28;20421;-79
2021/05/10 10:21:26;;;;;;;1999.90;999.90;;;21.60;80.40;;;;;;5076307;28;20781;-79
2021/05/10 10:23:54;;;;;;;1999.90;999.90;;;21.50;74.30;;;;;;5077135;28;20391;-79
2021/05/10 10:26:20;;;;;;;1999.90;999.90;;;21.30;69.50;;;;;;5074719;28;20423;-78
2021/05/10 10:28:47;;;;;;;1999.90;999.90;;;21.50;75.00;;;;;;5075872;28;20426;-79
2021/05/10 10:31:17;;;;;;;1999.90;999.90;;;21.40;57.60;;;;;;5075752;28;20414;-79
2021/05/10 10:34:06;;;;;;;1999.90;999.90;;;21.30;56.60;;;;;;5075691;28;20840;-79
2021/05/10 10:36:57;;;;;;;1999.90;999.90;;;21.40;55.80;;;;;;5077539;28;20798;-79
2021/05/10 10:39:27;;;;;;;1999.90;999.90;;;21.20;58.50;;;;;;5077270;28;20378;-78
2021/05/10 10:41:59;;;;;;;1999.90;999.90;;;21.20;62.30;;;;;;5075090;28;20475;-78
2021/05/10 10:44:33;;;;;;;1999.90;999.90;;;21.10;58.40;;;;;;5077134;28;20885;-79
2021/05/10 10:46:59;;;;;;;1999.90;999.90;;;21.00;59.50;;;;;;5077032;28;20432;-78
2021/05/10 10:49:31;;;;;;;1999.90;999.90;;;21.20;59.30;;;;;;5077861;28;20398;-79
2021/05/10 10:51:58;;;;;;;1999.90;999.90;;;21.30;57.90;;;;;;5081445;28;20401;-78
2021/05/10 10:54:26;;;;;;;1999.90;999.90;;;21.10;58.20;;;;;;5081369;28;20440;-79
2021/05/10 10:57:00;;;;;;;1999.90;999.90;;;21.20;59.90;;;;;;5081321;28;20470;-78
2021/05/10 10:59:36;;;;;;;1999.90;999.90;;;21.20;56.80;;;;;;5080362;28;20920;-79
2021/05/10 11:02:40;;;;;;;1999.90;999.90;;;21.10;53.80;;;;;;5081219;28;20386;-79
2021/05/10 11:05:17;;;;;;;1999.90;999.90;;;21.00;54.70;;;;;;5039484;28;20404;-79
2021/05/10 11:11:30;;;;;;;1999.90;999.90;;;21.20;52.90;;;;;;5059085;28;20794;-91
2021/05/10 11:14:02;;;;;;;1999.90;999.90;;;21.20;57.80;;;;;;5041045;28;20402;-90
2021/05/10 11:16:52;;;;;;;1999.90;999.90;;;21.30;55.10;;;;;;5060343;28;20449;-90
2021/05/10 11:20:08;;;;;;;1999.90;999.90;;;21.60;53.80;;;;;;5039690;28;20782;-91
2021/05/10 11:22:57;;;;;;;1999.90;999.90;;;21.60;44.00;;;;;;4957803;29;20452;-91
2021/05/10 11:25:41;;;;;;;1999.90;999.90;;;21.70;47.80;;;;;;4942651;29;20416;-89
2021/05/10 11:28:28;;;;;;;1999.90;999.90;;;22.20;43.20;;;;;;4942297;29;20444;-90
2021/05/10 11:31:08;;;;;;;1999.90;999.90;;;22.60;43.30;;;;;;4961012;29;20495;-90
2021/05/10 11:34:06;;;;;;;1999.90;999.90;;;23.00;43.20;;;;;;4941781;29;20804;-92
2021/05/10 11:37:52;;;;;;;1999.90;999.90;;;23.10;33.50;;;;;;4944470;29;20548;-91
2021/05/10 11:40:13;;;;;;;1999.90;999.90;;;22.80;30.60;;;;;;4922858;29;20452;-91
2021/05/10 11:42:45;;;;;;;1999.90;999.90;;;22.80;37.40;;;;;;4960027;28;20410;-88
2021/05/10 11:45:11;;;;;;;1999.90;999.90;;;23.10;34.10;;;;;;5038618;28;20421;-88
2021/05/10 11:47:46;;;;;;;1999.90;999.90;;;23.10;31.30;;;;;;5038643;28;20423;-88
2021/05/10 11:50:12;;;;;;;1999.90;999.90;;;22.70;29.80;;;;;;5038970;28;20774;-88
2021/05/10 11:52:44;;;;;;;1999.90;999.90;;;22.30;29.20;;;;;;5056822;28;20414;-88
2021/05/10 11:55:11;;;;;;;1999.90;999.90;;;21.90;30.70;;;;;;5038862;28;20577;-89
2021/05/10 11:57:41;;;;;;;1999.90;999.90;;;21.90;31.10;;;;;;5039231;28;20454;-88
2021/05/10 12:00:14;;;;;;;1999.90;999.90;;;21.50;36.20;;;;;;5039533;28;20437;-88
2021/05/10 12:02:48;;;;;;;1999.90;999.90;;;21.50;37.10;;;;;;5057003;28;20440;-89
2021/05/10 12:05:14;;;;;;;1999.90;999.90;;;21.60;38.50;;;;;;5039560;28;20436;-89
2021/05/10 12:07:42;;;;;;;1999.90;999.90;;;21.60;38.30;;;;;;5057281;28;20431;-89
2021/05/10 12:10:26;;;;;;;1999.90;999.90;;;21.70;39.50;;;;;;5039025;28;20407;-89
2021/05/10 12:12:52;;;;;;;1999.90;999.90;;;21.70;42.20;;;;;;5057033;28;20984;-89
2021/05/10 12:15:30;;;;;;;1999.90;999.90;;;21.50;40.80;;;;;;5057198;28;20478;-90
2021/05/10 12:18:09;;;;;;;1999.90;999.90;;;21.60;42.50;;;;;;5038095;28;20283;-89
2021/05/10 12:20:35;;;;;;;1999.90;999.90;;;21.70;41.80;;;;;;5038627;28;20415;-89